Terminal Aerodrome Forecast
Issued by NWS

Home | Current Version | Previous Version | Text Only | Print | Product List | Glossary On
Versions: 1 2 3 4 5 6 7 8 9 10 11 12 13 14 15 16 17 18 19
890
FTUS45 KABQ 182352 RRA
TAFGUP
TAF
KGUP 182352Z 1900/1924 24010KT P6SM SCT025 OVC040
     FM190600 23004KT 2SM BR BKN025
     FM191100 22008KT 1SM BR BKN007
      TEMPO 1913/1915 1/2SM FG BKN002
     FM191500 22006KT 4SM BR SCT007 BKN035
     FM191900 24014G21KT P6SM VCSH OVC050=

USA.gov is the U.S. government's official web portal to all federal, state and local government web resources and services.